< < Back
Terminal Aerodrome Forecast


Current Version              Previous Versions:   1  2  3  4  5  6  7  8  9  

Terminal Aerodrome Forecast

153
FTUS42 KGSP 172330
TAFAVL
TAF
KAVL 172330Z 1800/1824 20003KT P6SM -SHRA BKN050
     FM180600 32003KT 5SM BR BKN025
     FM181000 34003KT P6SM BKN035
     FM181900 17003KT P6SM BKN045=



Latest METAR

939
SAUS70 KWBC 181600 RRJ
MTRAVL
METAR KAVL 181554Z VRB04KT 10SM SCT060 22/12 A3005 RMK AO2 SLP155
T02170117


USA.gov is the U.S. government's official web portal to all federal, state and local government web resources and services.